sensor_id;sensor_type;location;lat;lon;timestamp;P1;durP1;ratioP1;P2;durP2;ratioP2
33786;SDS011;29742;51.540;9.358;2022-12-05T00:04:29;2.93;;;1.70;;
33786;SDS011;29742;51.540;9.358;2022-12-05T00:09:29;2.55;;;1.63;;
33786;SDS011;29742;51.540;9.358;2022-12-05T00:14:30;2.15;;;1.38;;
33786;SDS011;29742;51.540;9.358;2022-12-05T00:19:30;1.97;;;1.47;;
33786;SDS011;29742;51.540;9.358;2022-12-05T00:24:30;1.77;;;1.35;;
33786;SDS011;29742;51.540;9.358;2022-12-05T00:29:31;2.83;;;1.73;;
33786;SDS011;29742;51.540;9.358;2022-12-05T00:34:31;2.03;;;1.50;;
33786;SDS011;29742;51.540;9.358;2022-12-05T00:39:31;3.30;;;1.73;;
33786;SDS011;29742;51.540;9.358;2022-12-05T00:44:31;1.83;;;1.33;;
33786;SDS011;29742;51.540;9.358;2022-12-05T00:49:32;2.15;;;1.42;;
33786;SDS011;29742;51.540;9.358;2022-12-05T00:54:32;2.08;;;1.33;;
33786;SDS011;29742;51.540;9.358;2022-12-05T00:59:33;2.55;;;1.50;;
33786;SDS011;29742;51.540;9.358;2022-12-05T01:04:33;1.58;;;1.02;;
33786;SDS011;29742;51.540;9.358;2022-12-05T01:09:33;2.50;;;1.43;;
33786;SDS011;29742;51.540;9.358;2022-12-05T01:14:34;1.87;;;1.40;;
33786;SDS011;29742;51.540;9.358;2022-12-05T01:19:34;2.95;;;1.70;;
33786;SDS011;29742;51.540;9.358;2022-12-05T01:24:34;2.50;;;1.60;;
33786;SDS011;29742;51.540;9.358;2022-12-05T01:29:35;2.55;;;1.27;;
33786;SDS011;29742;51.540;9.358;2022-12-05T01:34:35;1.65;;;1.05;;
33786;SDS011;29742;51.540;9.358;2022-12-05T01:39:35;1.73;;;1.33;;
33786;SDS011;29742;51.540;9.358;2022-12-05T01:49:36;1.70;;;1.50;;
33786;SDS011;29742;51.540;9.358;2022-12-05T01:54:39;1.50;;;1.05;;
33786;SDS011;29742;51.540;9.358;2022-12-05T01:59:46;2.40;;;1.60;;
33786;SDS011;29742;51.540;9.358;2022-12-05T02:05:49;1.67;;;1.25;;
33786;SDS011;29742;51.540;9.358;2022-12-05T02:10:22;1.75;;;1.02;;
33786;SDS011;29742;51.540;9.358;2022-12-05T02:15:35;1.73;;;1.23;;
33786;SDS011;29742;51.540;9.358;2022-12-05T02:20:44;1.52;;;1.20;;
33786;SDS011;29742;51.540;9.358;2022-12-05T02:26:01;1.90;;;1.33;;
33786;SDS011;29742;51.540;9.358;2022-12-05T02:36:43;2.28;;;1.60;;
33786;SDS011;29742;51.540;9.358;2022-12-05T02:41:52;2.00;;;1.52;;
33786;SDS011;29742;51.540;9.358;2022-12-05T02:46:57;1.48;;;1.35;;
33786;SDS011;29742;51.540;9.358;2022-12-05T02:51:58;2.38;;;1.52;;
33786;SDS011;29742;51.540;9.358;2022-12-05T02:57:02;1.87;;;1.33;;
33786;SDS011;29742;51.540;9.358;2022-12-05T03:02:03;1.58;;;1.30;;
33786;SDS011;29742;51.540;9.358;2022-12-05T03:07:08;1.55;;;1.00;;
33786;SDS011;29742;51.540;9.358;2022-12-05T03:12:31;2.20;;;1.23;;
33786;SDS011;29742;51.540;9.358;2022-12-05T03:17:33;1.58;;;1.40;;
33786;SDS011;29742;51.540;9.358;2022-12-05T03:22:37;1.40;;;1.20;;
33786;SDS011;29742;51.540;9.358;2022-12-05T03:27:46;1.83;;;1.20;;
33786;SDS011;29742;51.540;9.358;2022-12-05T03:33:09;1.60;;;1.05;;
33786;SDS011;29742;51.540;9.358;2022-12-05T03:38:23;1.42;;;1.20;;
33786;SDS011;29742;51.540;9.358;2022-12-05T03:43:37;2.15;;;1.40;;
33786;SDS011;29742;51.540;9.358;2022-12-05T03:54:15;1.80;;;1.40;;
33786;SDS011;29742;51.540;9.358;2022-12-05T03:59:22;2.10;;;1.30;;
33786;SDS011;29742;51.540;9.358;2022-12-05T04:04:29;1.67;;;1.05;;
33786;SDS011;29742;51.540;9.358;2022-12-05T04:09:40;1.80;;;1.38;;
33786;SDS011;29742;51.540;9.358;2022-12-05T04:14:44;2.88;;;1.60;;
33786;SDS011;29742;51.540;9.358;2022-12-05T04:20:08;1.92;;;1.20;;
33786;SDS011;29742;51.540;9.358;2022-12-05T04:25:34;1.58;;;1.02;;
33786;SDS011;29742;51.540;9.358;2022-12-05T04:30:42;1.75;;;1.15;;
33786;SDS011;29742;51.540;9.358;2022-12-05T04:35:53;2.03;;;1.20;;
33786;SDS011;29742;51.540;9.358;2022-12-05T04:41:09;2.17;;;1.30;;
33786;SDS011;29742;51.540;9.358;2022-12-05T04:46:12;1.35;;;1.02;;
33786;SDS011;29742;51.540;9.358;2022-12-05T04:51:16;1.42;;;1.27;;
33786;SDS011;29742;51.540;9.358;2022-12-05T04:56:19;1.75;;;1.30;;
33786;SDS011;29742;51.540;9.358;2022-12-05T05:01:26;2.10;;;1.20;;
33786;SDS011;29742;51.540;9.358;2022-12-05T05:06:48;1.38;;;1.10;;
33786;SDS011;29742;51.540;9.358;2022-12-05T05:11:49;2.73;;;1.53;;
33786;SDS011;29742;51.540;9.358;2022-12-05T05:16:49;1.57;;;1.23;;
33786;SDS011;29742;51.540;9.358;2022-12-05T05:21:49;1.87;;;1.37;;
33786;SDS011;29742;51.540;9.358;2022-12-05T05:26:51;1.00;;;0.90;;
33786;SDS011;29742;51.540;9.358;2022-12-05T05:31:51;1.55;;;1.17;;
33786;SDS011;29742;51.540;9.358;2022-12-05T05:36:51;1.40;;;0.97;;
33786;SDS011;29742;51.540;9.358;2022-12-05T05:41:52;1.10;;;1.00;;
33786;SDS011;29742;51.540;9.358;2022-12-05T05:46:52;1.73;;;1.40;;
33786;SDS011;29742;51.540;9.358;2022-12-05T05:51:53;1.30;;;0.93;;
33786;SDS011;29742;51.540;9.358;2022-12-05T05:56:53;1.23;;;1.13;;
33786;SDS011;29742;51.540;9.358;2022-12-05T06:01:54;2.22;;;1.30;;
33786;SDS011;29742;51.540;9.358;2022-12-05T06:06:54;1.83;;;1.38;;
33786;SDS011;29742;51.540;9.358;2022-12-05T06:11:54;1.55;;;1.15;;
33786;SDS011;29742;51.540;9.358;2022-12-05T06:16:55;1.75;;;1.30;;
33786;SDS011;29742;51.540;9.358;2022-12-05T06:21:55;1.00;;;0.85;;
33786;SDS011;29742;51.540;9.358;2022-12-05T06:26:55;1.30;;;0.93;;
33786;SDS011;29742;51.540;9.358;2022-12-05T06:31:59;1.53;;;1.13;;
33786;SDS011;29742;51.540;9.358;2022-12-05T06:37:06;1.75;;;1.27;;
33786;SDS011;29742;51.540;9.358;2022-12-05T06:42:07;1.67;;;1.10;;
33786;SDS011;29742;51.540;9.358;2022-12-05T06:47:07;1.17;;;0.93;;
33786;SDS011;29742;51.540;9.358;2022-12-05T06:52:07;1.50;;;1.10;;
33786;SDS011;29742;51.540;9.358;2022-12-05T06:57:08;1.70;;;1.20;;
33786;SDS011;29742;51.540;9.358;2022-12-05T07:02:09;1.25;;;1.10;;
33786;SDS011;29742;51.540;9.358;2022-12-05T07:07:11;1.88;;;1.38;;
33786;SDS011;29742;51.540;9.358;2022-12-05T07:12:13;1.65;;;1.17;;
33786;SDS011;29742;51.540;9.358;2022-12-05T07:17:18;1.35;;;1.10;;
33786;SDS011;29742;51.540;9.358;2022-12-05T07:22:20;1.98;;;1.30;;
33786;SDS011;29742;51.540;9.358;2022-12-05T07:27:21;2.05;;;0.75;;
33786;SDS011;29742;51.540;9.358;2022-12-05T07:32:22;1.75;;;1.30;;
33786;SDS011;29742;51.540;9.358;2022-12-05T07:37:22;1.30;;;0.90;;
33786;SDS011;29742;51.540;9.358;2022-12-05T07:42:22;1.58;;;1.17;;
33786;SDS011;29742;51.540;9.358;2022-12-05T07:47:23;1.15;;;0.80;;
33786;SDS011;29742;51.540;9.358;2022-12-05T07:52:23;0.93;;;0.82;;
33786;SDS011;29742;51.540;9.358;2022-12-05T07:57:23;0.98;;;0.85;;
33786;SDS011;29742;51.540;9.358;2022-12-05T08:02:24;1.88;;;1.23;;
33786;SDS011;29742;51.540;9.358;2022-12-05T08:07:24;2.10;;;1.55;;
33786;SDS011;29742;51.540;9.358;2022-12-05T08:12:24;1.85;;;1.27;;
33786;SDS011;29742;51.540;9.358;2022-12-05T08:17:25;1.20;;;0.97;;
33786;SDS011;29742;51.540;9.358;2022-12-05T08:22:25;1.08;;;0.98;;
33786;SDS011;29742;51.540;9.358;2022-12-05T08:27:26;1.88;;;1.05;;
33786;SDS011;29742;51.540;9.358;2022-12-05T08:32:26;1.85;;;1.10;;
33786;SDS011;29742;51.540;9.358;2022-12-05T08:37:26;1.35;;;1.10;;
33786;SDS011;29742;51.540;9.358;2022-12-05T08:42:27;1.52;;;0.95;;
33786;SDS011;29742;51.540;9.358;2022-12-05T08:47:27;1.93;;;0.90;;
33786;SDS011;29742;51.540;9.358;2022-12-05T08:52:27;1.10;;;1.00;;
33786;SDS011;29742;51.540;9.358;2022-12-05T08:57:28;0.67;;;0.57;;
33786;SDS011;29742;51.540;9.358;2022-12-05T09:02:28;0.80;;;0.77;;
33786;SDS011;29742;51.540;9.358;2022-12-05T09:07:28;1.00;;;0.70;;
33786;SDS011;29742;51.540;9.358;2022-12-05T09:12:29;1.40;;;0.80;;
33786;SDS011;29742;51.540;9.358;2022-12-05T09:17:29;1.48;;;1.15;;
33786;SDS011;29742;51.540;9.358;2022-12-05T09:22:29;1.40;;;1.20;;
33786;SDS011;29742;51.540;9.358;2022-12-05T09:27:30;3.25;;;1.45;;
33786;SDS011;29742;51.540;9.358;2022-12-05T09:32:30;4.00;;;1.63;;
33786;SDS011;29742;51.540;9.358;2022-12-05T09:37:30;1.50;;;1.00;;
33786;SDS011;29742;51.540;9.358;2022-12-05T09:53:03;1.60;;;1.13;;
33786;SDS011;29742;51.540;9.358;2022-12-05T10:03:24;1.42;;;1.27;;
33786;SDS011;29742;51.540;9.358;2022-12-05T10:08:30;2.20;;;1.42;;
33786;SDS011;29742;51.540;9.358;2022-12-05T10:13:38;1.45;;;1.33;;
33786;SDS011;29742;51.540;9.358;2022-12-05T10:18:41;2.08;;;1.52;;
33786;SDS011;29742;51.540;9.358;2022-12-05T10:34:20;2.45;;;1.63;;
33786;SDS011;29742;51.540;9.358;2022-12-05T10:39:29;2.03;;;1.65;;
33786;SDS011;29742;51.540;9.358;2022-12-05T10:44:29;2.50;;;1.53;;
33786;SDS011;29742;51.540;9.358;2022-12-05T10:49:30;2.75;;;1.98;;
33786;SDS011;29742;51.540;9.358;2022-12-05T10:54:33;11.30;;;2.28;;
33786;SDS011;29742;51.540;9.358;2022-12-05T10:59:44;4.57;;;2.80;;
33786;SDS011;29742;51.540;9.358;2022-12-05T11:04:45;6.70;;;2.30;;
33786;SDS011;29742;51.540;9.358;2022-12-05T11:09:45;3.70;;;2.78;;
33786;SDS011;29742;51.540;9.358;2022-12-05T11:15:00;3.25;;;2.28;;
33786;SDS011;29742;51.540;9.358;2022-12-05T11:25:22;3.28;;;2.05;;
33786;SDS011;29742;51.540;9.358;2022-12-05T11:30:25;5.18;;;2.58;;
33786;SDS011;29742;51.540;9.358;2022-12-05T11:35:28;10.43;;;2.70;;
33786;SDS011;29742;51.540;9.358;2022-12-05T11:40:36;3.65;;;2.13;;
33786;SDS011;29742;51.540;9.358;2022-12-05T11:56:51;2.22;;;1.73;;
33786;SDS011;29742;51.540;9.358;2022-12-05T12:12:35;2.20;;;1.77;;
33786;SDS011;29742;51.540;9.358;2022-12-05T12:33:31;2.58;;;1.35;;
33786;SDS011;29742;51.540;9.358;2022-12-05T12:38:47;3.10;;;1.40;;
33786;SDS011;29742;51.540;9.358;2022-12-05T12:44:00;2.75;;;1.33;;
33786;SDS011;29742;51.540;9.358;2022-12-05T12:49:21;2.72;;;1.73;;
33786;SDS011;29742;51.540;9.358;2022-12-05T13:05:31;2.22;;;1.33;;
33786;SDS011;29742;51.540;9.358;2022-12-05T13:10:44;1.70;;;1.00;;
33786;SDS011;29742;51.540;9.358;2022-12-05T13:15:46;2.53;;;1.15;;
33786;SDS011;29742;51.540;9.358;2022-12-05T13:20:53;2.20;;;1.20;;
33786;SDS011;29742;51.540;9.358;2022-12-05T13:25:55;2.28;;;1.20;;
33786;SDS011;29742;51.540;9.358;2022-12-05T13:30:57;1.42;;;1.08;;
33786;SDS011;29742;51.540;9.358;2022-12-05T13:36:04;1.88;;;1.05;;
33786;SDS011;29742;51.540;9.358;2022-12-05T13:41:58;2.08;;;1.40;;
33786;SDS011;29742;51.540;9.358;2022-12-05T13:52:44;1.88;;;1.25;;
33786;SDS011;29742;51.540;9.358;2022-12-05T13:57:48;4.65;;;1.27;;
33786;SDS011;29742;51.540;9.358;2022-12-05T14:02:51;1.50;;;0.90;;
33786;SDS011;29742;51.540;9.358;2022-12-05T14:13:40;1.48;;;1.20;;
33786;SDS011;29742;51.540;9.358;2022-12-05T14:18:43;1.55;;;1.02;;
33786;SDS011;29742;51.540;9.358;2022-12-05T14:44:46;1.88;;;1.45;;
33786;SDS011;29742;51.540;9.358;2022-12-05T14:49:55;1.65;;;1.13;;
33786;SDS011;29742;51.540;9.358;2022-12-05T14:55:02;1.88;;;1.45;;
33786;SDS011;29742;51.540;9.358;2022-12-05T15:00:05;3.13;;;1.90;;
33786;SDS011;29742;51.540;9.358;2022-12-05T15:10:32;1.70;;;1.40;;
33786;SDS011;29742;51.540;9.358;2022-12-05T15:15:51;1.98;;;1.50;;
33786;SDS011;29742;51.540;9.358;2022-12-05T15:26:22;3.28;;;1.92;;
33786;SDS011;29742;51.540;9.358;2022-12-05T15:31:26;2.58;;;1.67;;
33786;SDS011;29742;51.540;9.358;2022-12-05T15:36:31;2.42;;;1.40;;
33786;SDS011;29742;51.540;9.358;2022-12-05T15:41:34;2.13;;;1.50;;
33786;SDS011;29742;51.540;9.358;2022-12-05T15:46:36;3.10;;;2.00;;
33786;SDS011;29742;51.540;9.358;2022-12-05T15:51:37;4.28;;;2.17;;
33786;SDS011;29742;51.540;9.358;2022-12-05T15:56:39;2.92;;;1.48;;
33786;SDS011;29742;51.540;9.358;2022-12-05T16:01:44;1.75;;;1.35;;
33786;SDS011;29742;51.540;9.358;2022-12-05T16:06:49;2.70;;;1.53;;
33786;SDS011;29742;51.540;9.358;2022-12-05T16:11:59;1.42;;;1.02;;
33786;SDS011;29742;51.540;9.358;2022-12-05T16:17:01;1.75;;;1.27;;
33786;SDS011;29742;51.540;9.358;2022-12-05T16:22:07;1.90;;;1.20;;
33786;SDS011;29742;51.540;9.358;2022-12-05T16:27:28;2.38;;;1.30;;
33786;SDS011;29742;51.540;9.358;2022-12-05T16:32:31;2.42;;;1.30;;
33786;SDS011;29742;51.540;9.358;2022-12-05T16:37:33;2.15;;;1.67;;
33786;SDS011;29742;51.540;9.358;2022-12-05T16:42:34;1.55;;;1.13;;
33786;SDS011;29742;51.540;9.358;2022-12-05T16:52:42;1.50;;;1.27;;
33786;SDS011;29742;51.540;9.358;2022-12-05T16:57:42;1.27;;;1.17;;
33786;SDS011;29742;51.540;9.358;2022-12-05T17:02:44;1.40;;;1.17;;
33786;SDS011;29742;51.540;9.358;2022-12-05T17:07:45;2.03;;;1.35;;
33786;SDS011;29742;51.540;9.358;2022-12-05T17:12:45;2.60;;;1.23;;
33786;SDS011;29742;51.540;9.358;2022-12-05T17:17:45;2.13;;;1.27;;
33786;SDS011;29742;51.540;9.358;2022-12-05T17:22:46;1.95;;;1.52;;
33786;SDS011;29742;51.540;9.358;2022-12-05T17:27:46;1.93;;;1.57;;
33786;SDS011;29742;51.540;9.358;2022-12-05T17:32:46;1.33;;;1.20;;
33786;SDS011;29742;51.540;9.358;2022-12-05T17:37:47;1.73;;;1.05;;
33786;SDS011;29742;51.540;9.358;2022-12-05T17:42:48;1.38;;;1.17;;
33786;SDS011;29742;51.540;9.358;2022-12-05T17:47:48;1.13;;;1.02;;
33786;SDS011;29742;51.540;9.358;2022-12-05T17:52:49;1.10;;;0.88;;
33786;SDS011;29742;51.540;9.358;2022-12-05T17:57:50;1.23;;;1.10;;
33786;SDS011;29742;51.540;9.358;2022-12-05T18:02:50;1.30;;;1.20;;
33786;SDS011;29742;51.540;9.358;2022-12-05T18:07:51;1.17;;;1.08;;
33786;SDS011;29742;51.540;9.358;2022-12-05T18:12:51;1.45;;;1.30;;
33786;SDS011;29742;51.540;9.358;2022-12-05T18:17:52;1.95;;;1.35;;
33786;SDS011;29742;51.540;9.358;2022-12-05T18:22:54;1.35;;;0.95;;
33786;SDS011;29742;51.540;9.358;2022-12-05T18:27:55;3.13;;;1.13;;
33786;SDS011;29742;51.540;9.358;2022-12-05T18:32:55;2.65;;;1.80;;
33786;SDS011;29742;51.540;9.358;2022-12-05T18:37:55;2.40;;;1.85;;
33786;SDS011;29742;51.540;9.358;2022-12-05T18:42:56;1.65;;;1.30;;
33786;SDS011;29742;51.540;9.358;2022-12-05T18:47:56;2.08;;;1.33;;
33786;SDS011;29742;51.540;9.358;2022-12-05T18:52:56;2.05;;;1.80;;
33786;SDS011;29742;51.540;9.358;2022-12-05T18:57:57;3.65;;;1.77;;
33786;SDS011;29742;51.540;9.358;2022-12-05T19:02:59;3.05;;;1.80;;
33786;SDS011;29742;51.540;9.358;2022-12-05T19:07:59;2.83;;;1.60;;
33786;SDS011;29742;51.540;9.358;2022-12-05T19:12:59;1.87;;;1.33;;
33786;SDS011;29742;51.540;9.358;2022-12-05T19:17:59;3.47;;;1.93;;
33786;SDS011;29742;51.540;9.358;2022-12-05T19:23:00;1.30;;;1.15;;
33786;SDS011;29742;51.540;9.358;2022-12-05T19:28:00;2.40;;;1.55;;
33786;SDS011;29742;51.540;9.358;2022-12-05T19:33:00;2.10;;;1.70;;
33786;SDS011;29742;51.540;9.358;2022-12-05T19:38:01;1.88;;;1.40;;
33786;SDS011;29742;51.540;9.358;2022-12-05T19:43:01;2.83;;;1.58;;
33786;SDS011;29742;51.540;9.358;2022-12-05T19:48:03;1.67;;;1.13;;
33786;SDS011;29742;51.540;9.358;2022-12-05T19:53:04;1.88;;;1.42;;
33786;SDS011;29742;51.540;9.358;2022-12-05T19:58:04;1.95;;;1.48;;
33786;SDS011;29742;51.540;9.358;2022-12-05T20:03:04;2.30;;;1.40;;
33786;SDS011;29742;51.540;9.358;2022-12-05T20:08:04;2.65;;;1.33;;
33786;SDS011;29742;51.540;9.358;2022-12-05T20:13:05;1.77;;;1.20;;
33786;SDS011;29742;51.540;9.358;2022-12-05T20:18:05;1.40;;;1.30;;
33786;SDS011;29742;51.540;9.358;2022-12-05T20:23:06;1.47;;;1.00;;
33786;SDS011;29742;51.540;9.358;2022-12-05T20:28:06;1.73;;;1.33;;
33786;SDS011;29742;51.540;9.358;2022-12-05T20:33:07;1.63;;;1.15;;
33786;SDS011;29742;51.540;9.358;2022-12-05T20:38:08;1.60;;;1.30;;
33786;SDS011;29742;51.540;9.358;2022-12-05T20:43:08;2.70;;;1.47;;
33786;SDS011;29742;51.540;9.358;2022-12-05T20:48:09;1.67;;;1.47;;
33786;SDS011;29742;51.540;9.358;2022-12-05T20:53:09;1.42;;;0.98;;
33786;SDS011;29742;51.540;9.358;2022-12-05T20:58:09;2.13;;;1.70;;
33786;SDS011;29742;51.540;9.358;2022-12-05T21:03:10;2.10;;;1.58;;
33786;SDS011;29742;51.540;9.358;2022-12-05T21:08:10;1.58;;;1.15;;
33786;SDS011;29742;51.540;9.358;2022-12-05T21:13:11;3.47;;;1.80;;
33786;SDS011;29742;51.540;9.358;2022-12-05T21:18:11;1.63;;;1.27;;
33786;SDS011;29742;51.540;9.358;2022-12-05T21:23:11;2.03;;;1.67;;
33786;SDS011;29742;51.540;9.358;2022-12-05T21:28:12;1.65;;;1.23;;
33786;SDS011;29742;51.540;9.358;2022-12-05T21:33:12;1.52;;;1.38;;
33786;SDS011;29742;51.540;9.358;2022-12-05T21:38:13;1.75;;;1.25;;
33786;SDS011;29742;51.540;9.358;2022-12-05T21:43:13;1.80;;;1.48;;
33786;SDS011;29742;51.540;9.358;2022-12-05T21:48:15;3.13;;;1.50;;
33786;SDS011;29742;51.540;9.358;2022-12-05T21:53:16;1.98;;;1.65;;
33786;SDS011;29742;51.540;9.358;2022-12-05T21:58:17;2.05;;;1.38;;
33786;SDS011;29742;51.540;9.358;2022-12-05T22:03:17;1.85;;;1.45;;
33786;SDS011;29742;51.540;9.358;2022-12-05T22:08:17;2.40;;;1.60;;
33786;SDS011;29742;51.540;9.358;2022-12-05T22:13:17;2.45;;;1.55;;
33786;SDS011;29742;51.540;9.358;2022-12-05T22:18:18;1.83;;;1.60;;
33786;SDS011;29742;51.540;9.358;2022-12-05T22:23:18;2.35;;;1.67;;
33786;SDS011;29742;51.540;9.358;2022-12-05T22:28:18;1.63;;;1.30;;
33786;SDS011;29742;51.540;9.358;2022-12-05T22:33:19;1.67;;;1.45;;
33786;SDS011;29742;51.540;9.358;2022-12-05T22:38:19;2.00;;;1.40;;
33786;SDS011;29742;51.540;9.358;2022-12-05T22:43:19;2.15;;;1.50;;
33786;SDS011;29742;51.540;9.358;2022-12-05T22:48:20;2.33;;;1.52;;
33786;SDS011;29742;51.540;9.358;2022-12-05T22:53:21;1.88;;;1.50;;
33786;SDS011;29742;51.540;9.358;2022-12-05T22:58:22;1.75;;;1.40;;
33786;SDS011;29742;51.540;9.358;2022-12-05T23:03:23;2.10;;;1.50;;
33786;SDS011;29742;51.540;9.358;2022-12-05T23:08:23;2.35;;;1.70;;
33786;SDS011;29742;51.540;9.358;2022-12-05T23:13:23;2.30;;;1.45;;
33786;SDS011;29742;51.540;9.358;2022-12-05T23:18:24;2.58;;;1.50;;
33786;SDS011;29742;51.540;9.358;2022-12-05T23:23:24;2.22;;;1.38;;
33786;SDS011;29742;51.540;9.358;2022-12-05T23:28:24;2.03;;;1.38;;
33786;SDS011;29742;51.540;9.358;2022-12-05T23:33:25;1.83;;;1.38;;
33786;SDS011;29742;51.540;9.358;2022-12-05T23:38:27;1.38;;;1.10;;
33786;SDS011;29742;51.540;9.358;2022-12-05T23:43:28;2.07;;;1.50;;
33786;SDS011;29742;51.540;9.358;2022-12-05T23:48:29;1.55;;;1.25;;
33786;SDS011;29742;51.540;9.358;2022-12-05T23:53:30;3.30;;;1.27;;
33786;SDS011;29742;51.540;9.358;2022-12-05T23:58:31;1.88;;;1.13;;
